sensor_id;sensor_type;location;lat;lon;timestamp;temperature;humidity
35457;DHT22;21575;51.538;-0.084;2022-07-01T00:00:35;13.70;99.90
35457;DHT22;21575;51.538;-0.084;2022-07-01T00:03:01;13.60;99.90
35457;DHT22;21575;51.538;-0.084;2022-07-01T00:05:26;13.70;99.90
35457;DHT22;21575;51.538;-0.084;2022-07-01T00:07:52;13.60;99.90
35457;DHT22;21575;51.538;-0.084;2022-07-01T00:10:18;13.60;99.90
35457;DHT22;21575;51.538;-0.084;2022-07-01T00:12:43;13.60;99.90
35457;DHT22;21575;51.538;-0.084;2022-07-01T00:15:09;13.60;99.90
35457;DHT22;21575;51.538;-0.084;2022-07-01T00:17:35;13.60;99.90
35457;DHT22;21575;51.538;-0.084;2022-07-01T00:20:03;13.60;99.90
35457;DHT22;21575;51.538;-0.084;2022-07-01T00:22:29;13.60;99.90
35457;DHT22;21575;51.538;-0.084;2022-07-01T00:24:55;13.60;99.90
35457;DHT22;21575;51.538;-0.084;2022-07-01T00:27:20;13.50;99.90
35457;DHT22;21575;51.538;-0.084;2022-07-01T00:29:47;13.60;99.90
35457;DHT22;21575;51.538;-0.084;2022-07-01T00:32:13;13.60;99.90
35457;DHT22;21575;51.538;-0.084;2022-07-01T00:34:39;13.60;99.90
35457;DHT22;21575;51.538;-0.084;2022-07-01T00:37:04;13.60;99.90
35457;DHT22;21575;51.538;-0.084;2022-07-01T00:39:30;13.60;99.90
35457;DHT22;21575;51.538;-0.084;2022-07-01T00:42:02;13.60;99.90
35457;DHT22;21575;51.538;-0.084;2022-07-01T00:44:29;13.60;99.90
35457;DHT22;21575;51.538;-0.084;2022-07-01T00:46:56;13.50;99.90
35457;DHT22;21575;51.538;-0.084;2022-07-01T00:49:22;13.50;99.90
35457;DHT22;21575;51.538;-0.084;2022-07-01T00:51:48;13.50;99.90
35457;DHT22;21575;51.538;-0.084;2022-07-01T00:54:14;13.50;99.90
35457;DHT22;21575;51.538;-0.084;2022-07-01T00:56:41;13.50;99.90
35457;DHT22;21575;51.538;-0.084;2022-07-01T00:59:06;13.50;99.90
35457;DHT22;21575;51.538;-0.084;2022-07-01T01:01:32;13.50;99.90
35457;DHT22;21575;51.538;-0.084;2022-07-01T01:03:58;13.50;99.90
35457;DHT22;21575;51.538;-0.084;2022-07-01T01:06:24;13.40;99.90
35457;DHT22;21575;51.538;-0.084;2022-07-01T01:08:50;13.40;99.90
35457;DHT22;21575;51.538;-0.084;2022-07-01T01:11:17;13.40;99.90
35457;DHT22;21575;51.538;-0.084;2022-07-01T01:13:42;13.40;99.90
35457;DHT22;21575;51.538;-0.084;2022-07-01T01:16:19;13.40;99.90
35457;DHT22;21575;51.538;-0.084;2022-07-01T01:18:45;13.50;99.90
35457;DHT22;21575;51.538;-0.084;2022-07-01T01:21:11;13.50;99.90
35457;DHT22;21575;51.538;-0.084;2022-07-01T01:23:36;13.50;99.90
35457;DHT22;21575;51.538;-0.084;2022-07-01T01:26:02;13.50;99.90
35457;DHT22;21575;51.538;-0.084;2022-07-01T01:28:28;13.50;99.90
35457;DHT22;21575;51.538;-0.084;2022-07-01T01:30:54;13.50;99.90
35457;DHT22;21575;51.538;-0.084;2022-07-01T01:33:20;13.50;99.90
35457;DHT22;21575;51.538;-0.084;2022-07-01T01:35:46;13.50;99.90
35457;DHT22;21575;51.538;-0.084;2022-07-01T01:38:12;13.50;99.90
35457;DHT22;21575;51.538;-0.084;2022-07-01T01:40:38;13.50;99.90
35457;DHT22;21575;51.538;-0.084;2022-07-01T01:43:03;13.60;99.90
35457;DHT22;21575;51.538;-0.084;2022-07-01T01:45:29;13.60;99.90
35457;DHT22;21575;51.538;-0.084;2022-07-01T01:47:55;13.60;99.90
35457;DHT22;21575;51.538;-0.084;2022-07-01T01:50:21;13.60;99.90
35457;DHT22;21575;51.538;-0.084;2022-07-01T01:52:47;13.60;99.90
35457;DHT22;21575;51.538;-0.084;2022-07-01T01:55:12;13.60;99.90
35457;DHT22;21575;51.538;-0.084;2022-07-01T01:57:38;13.60;99.90
35457;DHT22;21575;51.538;-0.084;2022-07-01T02:00:06;13.70;99.90
35457;DHT22;21575;51.538;-0.084;2022-07-01T02:02:33;13.70;99.90
35457;DHT22;21575;51.538;-0.084;2022-07-01T02:05:06;13.70;99.90
35457;DHT22;21575;51.538;-0.084;2022-07-01T02:07:32;13.70;99.90
35457;DHT22;21575;51.538;-0.084;2022-07-01T02:09:57;13.70;99.90
35457;DHT22;21575;51.538;-0.084;2022-07-01T02:12:23;13.70;99.90
35457;DHT22;21575;51.538;-0.084;2022-07-01T02:14:49;13.70;99.90
35457;DHT22;21575;51.538;-0.084;2022-07-01T02:17:14;13.70;99.90
35457;DHT22;21575;51.538;-0.084;2022-07-01T02:19:40;13.80;99.90
35457;DHT22;21575;51.538;-0.084;2022-07-01T02:22:05;13.80;99.90
35457;DHT22;21575;51.538;-0.084;2022-07-01T02:24:31;13.80;99.90
35457;DHT22;21575;51.538;-0.084;2022-07-01T02:26:57;13.80;99.90
35457;DHT22;21575;51.538;-0.084;2022-07-01T02:29:22;13.90;99.90
35457;DHT22;21575;51.538;-0.084;2022-07-01T02:31:48;13.90;99.90
35457;DHT22;21575;51.538;-0.084;2022-07-01T02:34:13;13.90;99.90
35457;DHT22;21575;51.538;-0.084;2022-07-01T02:36:39;13.90;99.90
35457;DHT22;21575;51.538;-0.084;2022-07-01T02:39:05;13.90;99.90
35457;DHT22;21575;51.538;-0.084;2022-07-01T02:41:30;14.00;99.90
35457;DHT22;21575;51.538;-0.084;2022-07-01T02:43:56;14.00;99.90
35457;DHT22;21575;51.538;-0.084;2022-07-01T02:46:22;14.00;99.90
35457;DHT22;21575;51.538;-0.084;2022-07-01T02:48:47;14.00;99.90
35457;DHT22;21575;51.538;-0.084;2022-07-01T02:51:13;14.00;99.90
35457;DHT22;21575;51.538;-0.084;2022-07-01T02:53:38;14.10;99.90
35457;DHT22;21575;51.538;-0.084;2022-07-01T02:56:04;14.10;99.90
35457;DHT22;21575;51.538;-0.084;2022-07-01T02:58:30;14.10;99.90
35457;DHT22;21575;51.538;-0.084;2022-07-01T03:00:55;14.10;99.90
35457;DHT22;21575;51.538;-0.084;2022-07-01T03:03:22;14.10;99.90
35457;DHT22;21575;51.538;-0.084;2022-07-01T03:05:47;14.10;99.90
35457;DHT22;21575;51.538;-0.084;2022-07-01T03:08:14;14.10;99.90
35457;DHT22;21575;51.538;-0.084;2022-07-01T03:10:40;14.10;99.90
35457;DHT22;21575;51.538;-0.084;2022-07-01T03:13:05;14.00;99.90
35457;DHT22;21575;51.538;-0.084;2022-07-01T03:15:31;14.10;99.90
35457;DHT22;21575;51.538;-0.084;2022-07-01T03:17:57;14.00;99.90
35457;DHT22;21575;51.538;-0.084;2022-07-01T03:20:22;14.00;99.90
35457;DHT22;21575;51.538;-0.084;2022-07-01T03:22:48;14.00;99.90
35457;DHT22;21575;51.538;-0.084;2022-07-01T03:25:15;13.90;99.90
35457;DHT22;21575;51.538;-0.084;2022-07-01T03:27:41;13.90;99.90
35457;DHT22;21575;51.538;-0.084;2022-07-01T03:30:11;14.00;99.90
35457;DHT22;21575;51.538;-0.084;2022-07-01T03:32:37;13.90;99.90
35457;DHT22;21575;51.538;-0.084;2022-07-01T03:35:03;13.90;99.90
35457;DHT22;21575;51.538;-0.084;2022-07-01T03:37:49;13.90;99.90
35457;DHT22;21575;51.538;-0.084;2022-07-01T03:40:15;13.90;99.90
35457;DHT22;21575;51.538;-0.084;2022-07-01T03:42:40;13.90;99.90
35457;DHT22;21575;51.538;-0.084;2022-07-01T03:45:06;13.90;99.90
35457;DHT22;21575;51.538;-0.084;2022-07-01T03:47:32;13.90;99.90
35457;DHT22;21575;51.538;-0.084;2022-07-01T03:49:58;13.90;99.90
35457;DHT22;21575;51.538;-0.084;2022-07-01T03:52:23;13.90;99.90
35457;DHT22;21575;51.538;-0.084;2022-07-01T03:54:49;13.90;99.90
35457;DHT22;21575;51.538;-0.084;2022-07-01T03:57:14;13.90;99.90
35457;DHT22;21575;51.538;-0.084;2022-07-01T03:59:40;13.90;99.90
35457;DHT22;21575;51.538;-0.084;2022-07-01T04:02:07;13.90;99.90
35457;DHT22;21575;51.538;-0.084;2022-07-01T04:04:34;13.90;99.90
35457;DHT22;21575;51.538;-0.084;2022-07-01T04:07:02;13.90;99.90
35457;DHT22;21575;51.538;-0.084;2022-07-01T04:09:30;13.90;99.90
35457;DHT22;21575;51.538;-0.084;2022-07-01T04:11:56;13.80;99.90
35457;DHT22;21575;51.538;-0.084;2022-07-01T04:14:22;13.80;99.90
35457;DHT22;21575;51.538;-0.084;2022-07-01T04:16:50;13.80;99.90
35457;DHT22;21575;51.538;-0.084;2022-07-01T04:19:16;13.80;99.90
35457;DHT22;21575;51.538;-0.084;2022-07-01T04:21:43;13.80;99.90
35457;DHT22;21575;51.538;-0.084;2022-07-01T04:24:27;13.90;99.90
35457;DHT22;21575;51.538;-0.084;2022-07-01T04:26:54;13.90;99.90
35457;DHT22;21575;51.538;-0.084;2022-07-01T04:29:20;13.80;99.90
35457;DHT22;21575;51.538;-0.084;2022-07-01T04:31:46;13.80;99.90
35457;DHT22;21575;51.538;-0.084;2022-07-01T04:34:13;13.90;99.90
35457;DHT22;21575;51.538;-0.084;2022-07-01T04:36:39;13.90;99.90
35457;DHT22;21575;51.538;-0.084;2022-07-01T04:39:05;13.90;99.90
35457;DHT22;21575;51.538;-0.084;2022-07-01T04:41:31;13.90;99.90
35457;DHT22;21575;51.538;-0.084;2022-07-01T04:44:17;13.90;99.90
35457;DHT22;21575;51.538;-0.084;2022-07-01T04:46:43;13.90;99.90
35457;DHT22;21575;51.538;-0.084;2022-07-01T04:49:09;14.00;99.90
35457;DHT22;21575;51.538;-0.084;2022-07-01T04:51:35;14.00;99.90
35457;DHT22;21575;51.538;-0.084;2022-07-01T04:54:04;14.00;99.90
35457;DHT22;21575;51.538;-0.084;2022-07-01T04:56:31;14.00;99.90
35457;DHT22;21575;51.538;-0.084;2022-07-01T04:58:58;14.00;99.90
35457;DHT22;21575;51.538;-0.084;2022-07-01T05:01:23;14.00;99.90
35457;DHT22;21575;51.538;-0.084;2022-07-01T05:03:50;14.00;99.90
35457;DHT22;21575;51.538;-0.084;2022-07-01T05:06:16;14.10;99.90
35457;DHT22;21575;51.538;-0.084;2022-07-01T05:08:42;14.10;99.90
35457;DHT22;21575;51.538;-0.084;2022-07-01T05:11:07;14.10;99.90
35457;DHT22;21575;51.538;-0.084;2022-07-01T05:13:33;14.10;99.90
35457;DHT22;21575;51.538;-0.084;2022-07-01T05:15:59;14.10;99.90
35457;DHT22;21575;51.538;-0.084;2022-07-01T05:18:25;14.10;99.90
35457;DHT22;21575;51.538;-0.084;2022-07-01T05:21:10;14.20;99.90
35457;DHT22;21575;51.538;-0.084;2022-07-01T05:23:54;14.30;99.90
35457;DHT22;21575;51.538;-0.084;2022-07-01T05:26:20;14.30;99.90
35457;DHT22;21575;51.538;-0.084;2022-07-01T05:28:46;14.40;99.90
35457;DHT22;21575;51.538;-0.084;2022-07-01T05:31:12;14.50;99.90
35457;DHT22;21575;51.538;-0.084;2022-07-01T05:33:37;14.50;99.90
35457;DHT22;21575;51.538;-0.084;2022-07-01T05:36:04;14.50;99.90
35457;DHT22;21575;51.538;-0.084;2022-07-01T05:38:29;14.60;99.90
35457;DHT22;21575;51.538;-0.084;2022-07-01T05:40:55;14.60;99.90
35457;DHT22;21575;51.538;-0.084;2022-07-01T05:43:21;14.70;99.90
35457;DHT22;21575;51.538;-0.084;2022-07-01T05:45:47;14.80;99.90
35457;DHT22;21575;51.538;-0.084;2022-07-01T05:48:13;14.90;99.90
35457;DHT22;21575;51.538;-0.084;2022-07-01T05:50:42;14.90;99.90
35457;DHT22;21575;51.538;-0.084;2022-07-01T05:53:08;14.90;99.90
35457;DHT22;21575;51.538;-0.084;2022-07-01T05:55:34;14.90;99.90
35457;DHT22;21575;51.538;-0.084;2022-07-01T05:58:00;14.90;99.90
35457;DHT22;21575;51.538;-0.084;2022-07-01T06:00:32;14.90;99.90
35457;DHT22;21575;51.538;-0.084;2022-07-01T06:02:58;14.90;99.90
35457;DHT22;21575;51.538;-0.084;2022-07-01T06:05:23;14.80;99.90
35457;DHT22;21575;51.538;-0.084;2022-07-01T06:07:49;14.80;99.90
35457;DHT22;21575;51.538;-0.084;2022-07-01T06:10:15;14.80;99.90
35457;DHT22;21575;51.538;-0.084;2022-07-01T06:12:40;14.70;99.90
35457;DHT22;21575;51.538;-0.084;2022-07-01T06:15:08;14.70;99.90
35457;DHT22;21575;51.538;-0.084;2022-07-01T06:17:39;14.80;99.90
35457;DHT22;21575;51.538;-0.084;2022-07-01T06:20:06;14.80;99.90
35457;DHT22;21575;51.538;-0.084;2022-07-01T06:22:32;14.90;99.90
35457;DHT22;21575;51.538;-0.084;2022-07-01T06:24:58;14.90;99.90
35457;DHT22;21575;51.538;-0.084;2022-07-01T06:27:24;15.00;99.90
35457;DHT22;21575;51.538;-0.084;2022-07-01T06:29:50;15.10;99.90
35457;DHT22;21575;51.538;-0.084;2022-07-01T06:32:16;15.10;99.90
35457;DHT22;21575;51.538;-0.084;2022-07-01T06:34:42;15.20;99.90
35457;DHT22;21575;51.538;-0.084;2022-07-01T06:37:07;15.20;99.90
35457;DHT22;21575;51.538;-0.084;2022-07-01T06:39:33;15.20;99.90
35457;DHT22;21575;51.538;-0.084;2022-07-01T06:41:59;15.30;99.90
35457;DHT22;21575;51.538;-0.084;2022-07-01T06:44:25;15.30;99.90
35457;DHT22;21575;51.538;-0.084;2022-07-01T06:46:51;15.40;99.90
35457;DHT22;21575;51.538;-0.084;2022-07-01T06:49:17;15.50;99.90
35457;DHT22;21575;51.538;-0.084;2022-07-01T06:51:43;15.50;99.90
35457;DHT22;21575;51.538;-0.084;2022-07-01T06:54:08;15.60;99.90
35457;DHT22;21575;51.538;-0.084;2022-07-01T06:56:34;15.60;99.90
35457;DHT22;21575;51.538;-0.084;2022-07-01T06:59:00;15.60;99.90
35457;DHT22;21575;51.538;-0.084;2022-07-01T07:01:27;15.70;99.90
35457;DHT22;21575;51.538;-0.084;2022-07-01T07:03:54;15.80;99.90
35457;DHT22;21575;51.538;-0.084;2022-07-01T07:06:20;15.70;99.90
35457;DHT22;21575;51.538;-0.084;2022-07-01T07:08:45;15.80;99.90
35457;DHT22;21575;51.538;-0.084;2022-07-01T07:11:11;15.80;99.90
35457;DHT22;21575;51.538;-0.084;2022-07-01T07:13:37;15.80;99.90
35457;DHT22;21575;51.538;-0.084;2022-07-01T07:16:03;15.80;99.90
35457;DHT22;21575;51.538;-0.084;2022-07-01T07:18:29;15.90;99.90
35457;DHT22;21575;51.538;-0.084;2022-07-01T07:20:54;16.00;99.90
35457;DHT22;21575;51.538;-0.084;2022-07-01T07:23:20;16.10;99.90
35457;DHT22;21575;51.538;-0.084;2022-07-01T07:25:46;16.10;99.90
35457;DHT22;21575;51.538;-0.084;2022-07-01T07:28:11;16.20;99.90
35457;DHT22;21575;51.538;-0.084;2022-07-01T07:30:38;16.30;99.90
35457;DHT22;21575;51.538;-0.084;2022-07-01T07:33:04;16.40;99.90
35457;DHT22;21575;51.538;-0.084;2022-07-01T07:35:29;16.40;99.90
35457;DHT22;21575;51.538;-0.084;2022-07-01T07:37:55;16.70;99.90
35457;DHT22;21575;51.538;-0.084;2022-07-01T07:40:21;16.80;99.90
35457;DHT22;21575;51.538;-0.084;2022-07-01T07:42:47;16.90;99.90
35457;DHT22;21575;51.538;-0.084;2022-07-01T07:45:14;16.90;99.90
35457;DHT22;21575;51.538;-0.084;2022-07-01T07:47:48;16.90;99.90
35457;DHT22;21575;51.538;-0.084;2022-07-01T07:50:15;17.00;99.90
35457;DHT22;21575;51.538;-0.084;2022-07-01T07:52:41;17.10;99.90
35457;DHT22;21575;51.538;-0.084;2022-07-01T07:55:09;17.10;99.90
35457;DHT22;21575;51.538;-0.084;2022-07-01T07:57:39;17.10;99.90
35457;DHT22;21575;51.538;-0.084;2022-07-01T08:00:06;17.10;99.90
35457;DHT22;21575;51.538;-0.084;2022-07-01T08:02:33;17.10;99.90
35457;DHT22;21575;51.538;-0.084;2022-07-01T08:04:58;17.20;99.90
35457;DHT22;21575;51.538;-0.084;2022-07-01T08:07:24;17.20;99.90
35457;DHT22;21575;51.538;-0.084;2022-07-01T08:09:50;17.20;99.90
35457;DHT22;21575;51.538;-0.084;2022-07-01T08:12:16;17.20;99.90
35457;DHT22;21575;51.538;-0.084;2022-07-01T08:14:42;17.30;99.90
35457;DHT22;21575;51.538;-0.084;2022-07-01T08:17:08;17.30;99.90
35457;DHT22;21575;51.538;-0.084;2022-07-01T08:19:34;17.20;99.90
35457;DHT22;21575;51.538;-0.084;2022-07-01T08:22:00;17.20;99.90
35457;DHT22;21575;51.538;-0.084;2022-07-01T08:24:25;17.10;99.90
35457;DHT22;21575;51.538;-0.084;2022-07-01T08:26:51;17.10;99.90
35457;DHT22;21575;51.538;-0.084;2022-07-01T08:29:17;17.00;99.90
35457;DHT22;21575;51.538;-0.084;2022-07-01T08:31:42;17.00;99.90
35457;DHT22;21575;51.538;-0.084;2022-07-01T08:34:08;17.10;99.90
35457;DHT22;21575;51.538;-0.084;2022-07-01T08:36:37;17.20;99.90
35457;DHT22;21575;51.538;-0.084;2022-07-01T08:39:03;17.30;99.90
35457;DHT22;21575;51.538;-0.084;2022-07-01T08:41:29;17.40;99.90
35457;DHT22;21575;51.538;-0.084;2022-07-01T08:43:55;17.40;99.90
35457;DHT22;21575;51.538;-0.084;2022-07-01T08:46:22;17.60;99.90
35457;DHT22;21575;51.538;-0.084;2022-07-01T08:48:47;17.60;99.90
35457;DHT22;21575;51.538;-0.084;2022-07-01T08:51:14;17.70;99.90
35457;DHT22;21575;51.538;-0.084;2022-07-01T08:53:40;17.70;99.90
35457;DHT22;21575;51.538;-0.084;2022-07-01T08:56:05;17.70;99.90
35457;DHT22;21575;51.538;-0.084;2022-07-01T08:58:50;17.70;99.90
35457;DHT22;21575;51.538;-0.084;2022-07-01T09:03:43;17.90;99.90
35457;DHT22;21575;51.538;-0.084;2022-07-01T09:06:13;18.10;99.90
35457;DHT22;21575;51.538;-0.084;2022-07-01T09:08:40;18.20;99.90
35457;DHT22;21575;51.538;-0.084;2022-07-01T09:11:32;18.40;99.90
35457;DHT22;21575;51.538;-0.084;2022-07-01T09:14:15;18.60;99.90
35457;DHT22;21575;51.538;-0.084;2022-07-01T09:16:47;18.80;99.90
35457;DHT22;21575;51.538;-0.084;2022-07-01T09:19:18;18.80;99.90
35457;DHT22;21575;51.538;-0.084;2022-07-01T09:22:10;18.90;99.90
35457;DHT22;21575;51.538;-0.084;2022-07-01T09:24:43;18.90;99.90
35457;DHT22;21575;51.538;-0.084;2022-07-01T09:27:11;18.80;99.90
35457;DHT22;21575;51.538;-0.084;2022-07-01T09:29:51;18.80;99.90
35457;DHT22;21575;51.538;-0.084;2022-07-01T09:32:19;18.90;99.90
35457;DHT22;21575;51.538;-0.084;2022-07-01T09:34:51;18.80;99.90
35457;DHT22;21575;51.538;-0.084;2022-07-01T09:37:18;18.80;99.90
35457;DHT22;21575;51.538;-0.084;2022-07-01T09:39:49;18.80;99.90
35457;DHT22;21575;51.538;-0.084;2022-07-01T09:42:16;18.90;99.90
35457;DHT22;21575;51.538;-0.084;2022-07-01T09:45:01;18.90;99.90
35457;DHT22;21575;51.538;-0.084;2022-07-01T09:47:30;19.00;99.90
35457;DHT22;21575;51.538;-0.084;2022-07-01T09:49:56;19.20;99.90
35457;DHT22;21575;51.538;-0.084;2022-07-01T09:52:23;19.30;99.90
35457;DHT22;21575;51.538;-0.084;2022-07-01T09:54:50;19.40;99.90
35457;DHT22;21575;51.538;-0.084;2022-07-01T09:57:16;19.50;99.90
35457;DHT22;21575;51.538;-0.084;2022-07-01T09:59:42;19.40;99.90
35457;DHT22;21575;51.538;-0.084;2022-07-01T10:02:09;19.50;99.90
35457;DHT22;21575;51.538;-0.084;2022-07-01T10:04:37;19.50;99.90
35457;DHT22;21575;51.538;-0.084;2022-07-01T10:10:38;19.60;99.90
35457;DHT22;21575;51.538;-0.084;2022-07-01T10:13:07;19.40;99.90
35457;DHT22;21575;51.538;-0.084;2022-07-01T10:15:34;19.40;99.90
35457;DHT22;21575;51.538;-0.084;2022-07-01T10:18:02;19.40;99.90
35457;DHT22;21575;51.538;-0.084;2022-07-01T10:20:29;19.50;99.90
35457;DHT22;21575;51.538;-0.084;2022-07-01T10:23:05;19.40;99.90
35457;DHT22;21575;51.538;-0.084;2022-07-01T10:33:39;19.90;99.90
35457;DHT22;21575;51.538;-0.084;2022-07-01T10:36:10;20.00;99.90
35457;DHT22;21575;51.538;-0.084;2022-07-01T10:41:33;20.10;99.90
35457;DHT22;21575;51.538;-0.084;2022-07-01T10:44:03;20.20;99.90
35457;DHT22;21575;51.538;-0.084;2022-07-01T10:49:12;20.30;99.90
35457;DHT22;21575;51.538;-0.084;2022-07-01T10:51:58;20.30;99.90
35457;DHT22;21575;51.538;-0.084;2022-07-01T10:59:55;20.50;99.90
35457;DHT22;21575;51.538;-0.084;2022-07-01T11:02:27;20.50;99.90
35457;DHT22;21575;51.538;-0.084;2022-07-01T11:04:57;20.50;99.90
35457;DHT22;21575;51.538;-0.084;2022-07-01T11:07:25;20.40;99.90
35457;DHT22;21575;51.538;-0.084;2022-07-01T11:09:51;20.40;99.90
35457;DHT22;21575;51.538;-0.084;2022-07-01T11:12:17;20.50;99.90
35457;DHT22;21575;51.538;-0.084;2022-07-01T11:14:45;20.60;99.90
35457;DHT22;21575;51.538;-0.084;2022-07-01T11:17:11;20.40;99.90
35457;DHT22;21575;51.538;-0.084;2022-07-01T11:19:37;20.20;99.90
35457;DHT22;21575;51.538;-0.084;2022-07-01T11:22:03;20.10;99.90
35457;DHT22;21575;51.538;-0.084;2022-07-01T11:24:30;19.90;99.90
35457;DHT22;21575;51.538;-0.084;2022-07-01T11:27:16;19.80;99.90
35457;DHT22;21575;51.538;-0.084;2022-07-01T11:29:42;19.60;99.90
35457;DHT22;21575;51.538;-0.084;2022-07-01T11:32:07;19.30;99.90
35457;DHT22;21575;51.538;-0.084;2022-07-01T11:34:36;19.10;99.90
35457;DHT22;21575;51.538;-0.084;2022-07-01T11:37:09;18.80;99.90
35457;DHT22;21575;51.538;-0.084;2022-07-01T11:40:11;18.50;99.90
35457;DHT22;21575;51.538;-0.084;2022-07-01T11:42:37;18.20;99.90
35457;DHT22;21575;51.538;-0.084;2022-07-01T11:45:04;18.00;99.90
35457;DHT22;21575;51.538;-0.084;2022-07-01T11:47:30;17.90;99.90
35457;DHT22;21575;51.538;-0.084;2022-07-01T11:49:57;17.80;99.90
35457;DHT22;21575;51.538;-0.084;2022-07-01T11:52:24;17.80;99.90
35457;DHT22;21575;51.538;-0.084;2022-07-01T11:54:51;17.80;99.90
35457;DHT22;21575;51.538;-0.084;2022-07-01T11:57:20;17.80;99.90
35457;DHT22;21575;51.538;-0.084;2022-07-01T11:59:49;17.80;99.90
35457;DHT22;21575;51.538;-0.084;2022-07-01T12:02:15;17.90;99.90
35457;DHT22;21575;51.538;-0.084;2022-07-01T12:04:43;17.90;99.90
35457;DHT22;21575;51.538;-0.084;2022-07-01T12:07:09;18.00;99.90
35457;DHT22;21575;51.538;-0.084;2022-07-01T12:09:36;18.10;99.90
35457;DHT22;21575;51.538;-0.084;2022-07-01T12:12:02;18.20;99.90
35457;DHT22;21575;51.538;-0.084;2022-07-01T12:14:30;18.40;99.90
35457;DHT22;21575;51.538;-0.084;2022-07-01T12:17:02;18.60;99.90
35457;DHT22;21575;51.538;-0.084;2022-07-01T12:22:11;19.30;99.90
35457;DHT22;21575;51.538;-0.084;2022-07-01T12:24:37;19.70;99.90
35457;DHT22;21575;51.538;-0.084;2022-07-01T12:27:05;19.90;99.90
35457;DHT22;21575;51.538;-0.084;2022-07-01T12:29:50;20.00;99.90
35457;DHT22;21575;51.538;-0.084;2022-07-01T12:32:21;20.20;99.90
35457;DHT22;21575;51.538;-0.084;2022-07-01T12:34:58;20.30;99.90
35457;DHT22;21575;51.538;-0.084;2022-07-01T12:37:36;20.20;99.90
35457;DHT22;21575;51.538;-0.084;2022-07-01T12:40:06;20.20;99.90
35457;DHT22;21575;51.538;-0.084;2022-07-01T12:42:33;20.40;99.90
35457;DHT22;21575;51.538;-0.084;2022-07-01T12:45:02;20.50;99.90
35457;DHT22;21575;51.538;-0.084;2022-07-01T12:47:30;20.60;99.90
35457;DHT22;21575;51.538;-0.084;2022-07-01T12:52:38;20.50;99.90
35457;DHT22;21575;51.538;-0.084;2022-07-01T12:55:17;20.40;99.90
35457;DHT22;21575;51.538;-0.084;2022-07-01T12:57:45;20.40;99.90
35457;DHT22;21575;51.538;-0.084;2022-07-01T13:00:11;20.50;99.90
35457;DHT22;21575;51.538;-0.084;2022-07-01T13:02:37;20.60;99.90
35457;DHT22;21575;51.538;-0.084;2022-07-01T13:05:03;20.60;99.90
35457;DHT22;21575;51.538;-0.084;2022-07-01T13:07:29;20.80;99.90
35457;DHT22;21575;51.538;-0.084;2022-07-01T13:09:54;20.90;99.90
35457;DHT22;21575;51.538;-0.084;2022-07-01T13:12:20;21.10;99.90
35457;DHT22;21575;51.538;-0.084;2022-07-01T13:14:46;21.20;99.90
35457;DHT22;21575;51.538;-0.084;2022-07-01T13:17:11;21.30;99.90
35457;DHT22;21575;51.538;-0.084;2022-07-01T13:19:37;21.30;99.90
35457;DHT22;21575;51.538;-0.084;2022-07-01T13:22:03;21.30;99.90
35457;DHT22;21575;51.538;-0.084;2022-07-01T13:24:29;21.30;99.90
35457;DHT22;21575;51.538;-0.084;2022-07-01T13:26:55;21.30;99.90
35457;DHT22;21575;51.538;-0.084;2022-07-01T13:29:21;21.20;99.90
35457;DHT22;21575;51.538;-0.084;2022-07-01T13:31:47;21.20;99.90
35457;DHT22;21575;51.538;-0.084;2022-07-01T13:34:12;21.20;99.90
35457;DHT22;21575;51.538;-0.084;2022-07-01T13:36:38;21.20;99.90
35457;DHT22;21575;51.538;-0.084;2022-07-01T13:39:03;21.10;99.90
35457;DHT22;21575;51.538;-0.084;2022-07-01T13:41:29;21.20;99.90
35457;DHT22;21575;51.538;-0.084;2022-07-01T13:43:55;21.20;99.90
35457;DHT22;21575;51.538;-0.084;2022-07-01T13:46:20;21.20;99.90
35457;DHT22;21575;51.538;-0.084;2022-07-01T13:48:46;21.30;99.90
35457;DHT22;21575;51.538;-0.084;2022-07-01T13:51:12;21.50;99.90
35457;DHT22;21575;51.538;-0.084;2022-07-01T13:53:37;21.50;99.90
35457;DHT22;21575;51.538;-0.084;2022-07-01T13:56:03;21.50;99.90
35457;DHT22;21575;51.538;-0.084;2022-07-01T13:58:29;21.60;99.90
35457;DHT22;21575;51.538;-0.084;2022-07-01T14:00:55;21.60;99.90
35457;DHT22;21575;51.538;-0.084;2022-07-01T14:03:21;21.50;99.90
35457;DHT22;21575;51.538;-0.084;2022-07-01T14:05:47;21.40;99.90
35457;DHT22;21575;51.538;-0.084;2022-07-01T14:08:12;21.30;99.90
35457;DHT22;21575;51.538;-0.084;2022-07-01T14:10:38;21.30;99.90
35457;DHT22;21575;51.538;-0.084;2022-07-01T14:13:05;21.40;99.90
35457;DHT22;21575;51.538;-0.084;2022-07-01T14:15:31;21.30;99.90
35457;DHT22;21575;51.538;-0.084;2022-07-01T14:17:57;21.20;99.90
35457;DHT22;21575;51.538;-0.084;2022-07-01T14:20:22;21.30;99.90
35457;DHT22;21575;51.538;-0.084;2022-07-01T14:22:48;21.30;99.90
35457;DHT22;21575;51.538;-0.084;2022-07-01T14:25:14;21.20;99.90
35457;DHT22;21575;51.538;-0.084;2022-07-01T14:27:39;21.30;99.90
35457;DHT22;21575;51.538;-0.084;2022-07-01T14:30:06;21.30;99.90
35457;DHT22;21575;51.538;-0.084;2022-07-01T14:32:33;21.40;99.90
35457;DHT22;21575;51.538;-0.084;2022-07-01T14:34:59;21.40;99.90
35457;DHT22;21575;51.538;-0.084;2022-07-01T14:37:24;21.50;99.90
35457;DHT22;21575;51.538;-0.084;2022-07-01T14:39:50;21.50;99.90
35457;DHT22;21575;51.538;-0.084;2022-07-01T14:42:21;21.50;99.90
35457;DHT22;21575;51.538;-0.084;2022-07-01T14:44:47;21.50;99.90
35457;DHT22;21575;51.538;-0.084;2022-07-01T14:47:14;21.60;99.90
35457;DHT22;21575;51.538;-0.084;2022-07-01T14:49:40;21.70;99.90
35457;DHT22;21575;51.538;-0.084;2022-07-01T14:52:06;21.80;99.90
35457;DHT22;21575;51.538;-0.084;2022-07-01T14:54:32;21.80;99.90
35457;DHT22;21575;51.538;-0.084;2022-07-01T14:56:57;21.80;99.90
35457;DHT22;21575;51.538;-0.084;2022-07-01T14:59:23;21.80;99.90
35457;DHT22;21575;51.538;-0.084;2022-07-01T15:01:49;21.80;99.90
35457;DHT22;21575;51.538;-0.084;2022-07-01T15:04:14;21.70;99.90
35457;DHT22;21575;51.538;-0.084;2022-07-01T15:06:40;21.60;99.90
35457;DHT22;21575;51.538;-0.084;2022-07-01T15:09:06;21.50;99.90
35457;DHT22;21575;51.538;-0.084;2022-07-01T15:11:31;21.50;99.90
35457;DHT22;21575;51.538;-0.084;2022-07-01T15:13:59;21.60;99.90
35457;DHT22;21575;51.538;-0.084;2022-07-01T15:16:24;21.50;99.90
35457;DHT22;21575;51.538;-0.084;2022-07-01T15:18:51;21.50;99.90
35457;DHT22;21575;51.538;-0.084;2022-07-01T15:21:18;21.60;99.90
35457;DHT22;21575;51.538;-0.084;2022-07-01T15:23:44;21.60;99.90
35457;DHT22;21575;51.538;-0.084;2022-07-01T15:26:10;21.60;99.90
35457;DHT22;21575;51.538;-0.084;2022-07-01T15:28:36;21.60;99.90
35457;DHT22;21575;51.538;-0.084;2022-07-01T15:31:02;21.70;99.90
35457;DHT22;21575;51.538;-0.084;2022-07-01T15:33:28;21.50;99.90
35457;DHT22;21575;51.538;-0.084;2022-07-01T15:35:54;21.40;99.90
35457;DHT22;21575;51.538;-0.084;2022-07-01T15:38:20;21.40;99.90
35457;DHT22;21575;51.538;-0.084;2022-07-01T15:40:46;21.40;99.90
35457;DHT22;21575;51.538;-0.084;2022-07-01T15:43:13;21.40;99.90
35457;DHT22;21575;51.538;-0.084;2022-07-01T15:45:39;21.40;99.90